createdAt,value
2018-05-12T00:00:46.617Z,16.50
2018-05-12T00:03:14.915Z,16.50
2018-05-12T00:05:42.412Z,16.50
2018-05-12T00:08:09.906Z,16.50
2018-05-12T00:10:37.428Z,16.50
2018-05-12T00:13:04.931Z,16.50
2018-05-12T00:15:32.466Z,16.40
2018-05-12T00:17:59.960Z,16.40
2018-05-12T00:20:27.449Z,16.40
2018-05-12T00:22:54.974Z,16.40
2018-05-12T00:25:23.238Z,16.30
2018-05-12T00:27:50.723Z,16.30
2018-05-12T00:30:19.018Z,16.30
2018-05-12T00:32:47.273Z,16.10
2018-05-12T00:35:14.797Z,16.10
2018-05-12T00:37:42.282Z,16.10
2018-05-12T00:40:09.766Z,16.00
2018-05-12T00:42:37.299Z,16.00
2018-05-12T00:45:04.790Z,15.90
2018-05-12T00:47:32.291Z,15.80
2018-05-12T00:49:59.805Z,15.80
2018-05-12T00:52:27.298Z,15.80
2018-05-12T00:54:54.790Z,15.70
2018-05-12T00:57:22.323Z,15.80
2018-05-12T00:59:49.826Z,15.80
2018-05-12T01:02:17.314Z,15.70
2018-05-12T01:04:44.831Z,15.70
2018-05-12T01:07:12.341Z,15.70
2018-05-12T01:09:39.856Z,15.70
2018-05-12T01:12:08.162Z,15.60
2018-05-12T01:14:35.665Z,15.60
2018-05-12T01:17:03.163Z,15.60
2018-05-12T01:19:30.711Z,15.60
2018-05-12T01:21:58.220Z,15.60
2018-05-12T01:24:26.490Z,15.70
2018-05-12T01:26:54.037Z,15.70
2018-05-12T01:29:21.543Z,15.70
2018-05-12T01:31:49.050Z,15.70
2018-05-12T01:34:16.597Z,15.70
2018-05-12T01:36:44.866Z,15.40
2018-05-12T01:39:12.381Z,15.40
2018-05-12T01:41:39.921Z,15.50
2018-05-12T01:44:08.284Z,15.40
2018-05-12T01:46:36.496Z,15.50
2018-05-12T01:49:04.792Z,15.50
2018-05-12T01:51:33.065Z,15.40
2018-05-12T01:54:01.347Z,15.40
2018-05-12T01:56:28.891Z,15.40
2018-05-12T01:58:56.397Z,15.40
2018-05-12T02:01:24.675Z,15.30
2018-05-12T02:03:52.220Z,15.20
2018-05-12T02:06:19.726Z,15.20
2018-05-12T02:08:47.235Z,15.30
2018-05-12T02:11:14.767Z,15.30
2018-05-12T02:13:42.276Z,15.20
2018-05-12T02:16:10.017Z,15.30
2018-05-12T02:18:37.557Z,15.30
2018-05-12T02:21:05.060Z,15.20
2018-05-12T02:23:32.594Z,15.20
2018-05-12T02:26:00.096Z,15.30
2018-05-12T02:28:27.595Z,15.20
2018-05-12T02:30:55.152Z,15.20
2018-05-12T02:33:23.428Z,15.30
2018-05-12T02:35:50.932Z,15.20
2018-05-12T02:38:18.473Z,15.20
2018-05-12T02:40:46.746Z,15.20
2018-05-12T02:43:14.252Z,15.20
2018-05-12T02:45:41.799Z,15.30
2018-05-12T02:48:09.303Z,15.30
2018-05-12T02:50:36.811Z,15.30
2018-05-12T02:53:04.353Z,15.30
2018-05-12T02:55:31.856Z,15.30
2018-05-12T02:57:59.372Z,15.30
2018-05-12T03:00:27.685Z,15.10
2018-05-12T03:02:55.192Z,15.10
2018-05-12T03:05:22.699Z,15.10
2018-05-12T03:07:50.995Z,15.30
2018-05-12T03:10:19.264Z,15.30
2018-05-12T03:12:47.570Z,15.20
2018-05-12T03:15:15.844Z,15.20
2018-05-12T03:17:44.121Z,15.20
2018-05-12T03:20:11.660Z,15.10
2018-05-12T03:22:39.167Z,15.10
2018-05-12T03:25:06.676Z,15.10
2018-05-12T03:27:34.215Z,15.10
2018-05-12T03:30:02.486Z,15.20
2018-05-12T03:32:30.002Z,15.10
2018-05-12T03:34:57.551Z,15.20
2018-05-12T03:37:25.830Z,15.40
2018-05-12T03:39:53.331Z,15.30
2018-05-12T03:42:20.871Z,15.40
2018-05-12T03:44:49.148Z,15.30
2018-05-12T03:47:16.650Z,15.30
2018-05-12T03:49:44.207Z,15.30
2018-05-12T03:52:11.714Z,15.20
2018-05-12T03:54:39.220Z,15.20
2018-05-12T03:57:06.755Z,15.10
2018-05-12T03:59:34.257Z,15.10
2018-05-12T04:02:01.768Z,15.20
2018-05-12T04:04:41.932Z,15.20
2018-05-12T04:07:21.820Z,15.40
2018-05-12T04:10:02.044Z,15.30
2018-05-12T04:12:39.072Z,15.40
2018-05-12T04:15:06.620Z,15.30
2018-05-12T04:17:34.887Z,15.20
2018-05-12T04:20:02.383Z,15.20
2018-05-12T04:22:30.687Z,15.30
2018-05-12T04:24:58.203Z,15.20
2018-05-12T04:27:25.707Z,15.20
2018-05-12T04:29:54.011Z,15.40
2018-05-12T04:32:22.275Z,15.50
2018-05-12T04:34:49.789Z,15.50
2018-05-12T04:37:17.325Z,15.60
2018-05-12T04:39:44.849Z,15.70
2018-05-12T04:42:12.349Z,15.60
2018-05-12T04:44:39.876Z,15.50
2018-05-12T04:47:07.378Z,15.50
2018-05-12T04:49:34.886Z,15.50
2018-05-12T04:52:03.196Z,15.50
2018-05-12T04:54:30.712Z,15.50
2018-05-12T04:56:58.256Z,15.50
2018-05-12T04:59:25.771Z,15.60
2018-05-12T05:01:53.268Z,15.60
2018-05-12T05:04:20.824Z,15.60
2018-05-12T05:06:48.311Z,15.60
2018-05-12T05:09:16.591Z,15.60
2018-05-12T05:11:44.952Z,15.60
2018-05-12T05:14:12.420Z,15.50
2018-05-12T05:16:39.929Z,15.50
2018-05-12T05:19:07.478Z,15.50
2018-05-12T05:21:34.985Z,15.60
2018-05-12T05:24:02.494Z,15.60
2018-05-12T05:26:30.024Z,15.70
2018-05-12T05:28:57.523Z,15.70
2018-05-12T05:31:25.031Z,15.80
2018-05-12T05:33:52.567Z,15.70
2018-05-12T05:36:20.072Z,15.80
2018-05-12T05:38:47.587Z,15.80
2018-05-12T05:41:15.123Z,15.90
2018-05-12T05:43:43.388Z,16.10
2018-05-12T05:46:10.990Z,16.10
2018-05-12T05:48:38.447Z,16.20
2018-05-12T05:51:06.715Z,16.30
2018-05-12T05:53:34.260Z,16.20
2018-05-12T05:56:01.765Z,16.30
2018-05-12T05:58:29.348Z,16.50
2018-05-12T06:00:56.828Z,16.50
2018-05-12T06:03:25.096Z,16.60
2018-05-12T06:05:52.608Z,16.50
2018-05-12T06:08:20.147Z,16.70
2018-05-12T06:10:47.653Z,16.80
2018-05-12T06:13:15.162Z,16.80
2018-05-12T06:15:42.691Z,16.90
2018-05-12T06:18:10.200Z,17.00
2018-05-12T06:20:37.736Z,17.30
2018-05-12T06:23:05.235Z,17.40
2018-05-12T06:25:32.740Z,17.40
2018-05-12T06:28:00.387Z,17.50
2018-05-12T06:30:27.792Z,17.50
2018-05-12T06:32:56.059Z,17.60
2018-05-12T06:35:23.620Z,17.50
2018-05-12T06:37:51.124Z,17.60
2018-05-12T06:40:19.388Z,17.70
2018-05-12T06:42:46.928Z,17.60
2018-05-12T06:45:14.440Z,17.70
2018-05-12T06:47:41.937Z,17.80
2018-05-12T06:50:09.480Z,17.90
2018-05-12T06:52:36.979Z,17.90
2018-05-12T06:55:04.494Z,17.60
2018-05-12T06:57:32.031Z,17.60
2018-05-12T06:59:59.536Z,17.50
2018-05-12T07:02:27.040Z,17.60
2018-05-12T07:04:55.347Z,18.00
2018-05-12T07:07:23.619Z,18.20
2018-05-12T07:09:51.900Z,18.40
2018-05-12T07:12:19.500Z,18.40
2018-05-12T07:14:47.645Z,18.60
2018-05-12T07:17:15.151Z,18.80
2018-05-12T07:19:42.699Z,19.10
2018-05-12T07:22:10.198Z,19.50
2018-05-12T07:24:37.692Z,20.00
2018-05-12T07:27:05.231Z,20.60
2018-05-12T07:29:32.801Z,21.30
2018-05-12T07:32:00.264Z,21.90
2018-05-12T07:34:28.575Z,23.10
2018-05-12T07:36:56.076Z,23.00
2018-05-12T07:39:23.579Z,23.60
2018-05-12T07:41:51.118Z,23.90
2018-05-12T07:44:18.620Z,23.70
2018-05-12T07:46:46.159Z,23.70
2018-05-12T07:49:13.664Z,24.00
2018-05-12T07:51:41.188Z,24.60
2018-05-12T07:54:09.495Z,24.70
2018-05-12T07:56:36.998Z,24.60
2018-05-12T07:59:04.503Z,25.10
2018-05-12T08:01:32.043Z,24.70
2018-05-12T08:04:00.311Z,25.50
2018-05-12T08:06:27.825Z,25.50
2018-05-12T08:08:55.367Z,25.70
2018-05-12T08:11:22.882Z,25.70
2018-05-12T08:13:50.415Z,25.50
2018-05-12T08:16:18.679Z,25.90
2018-05-12T08:18:46.183Z,25.90
2018-05-12T08:21:14.548Z,26.00
2018-05-12T08:23:42.058Z,25.90
2018-05-12T08:26:09.665Z,25.90
2018-05-12T08:28:37.136Z,25.80
2018-05-12T08:31:04.640Z,26.20
2018-05-12T08:33:32.912Z,27.00
2018-05-12T08:36:00.453Z,26.90
2018-05-12T08:38:27.960Z,26.60
2018-05-12T08:40:55.473Z,27.20
2018-05-12T08:43:23.019Z,27.50
2018-05-12T08:45:51.298Z,27.90
2018-05-12T08:48:19.595Z,27.90
2018-05-12T08:50:47.920Z,27.40
2018-05-12T08:53:15.424Z,27.40
2018-05-12T08:55:42.933Z,27.60
2018-05-12T08:58:11.238Z,27.30
2018-05-12T09:00:38.736Z,27.30
2018-05-12T09:03:07.002Z,27.00
2018-05-12T09:05:34.548Z,27.00
2018-05-12T09:08:02.819Z,26.90
2018-05-12T09:10:30.325Z,26.90
2018-05-12T09:12:57.855Z,27.00
2018-05-12T09:15:25.359Z,26.90
2018-05-12T09:17:52.875Z,26.90
2018-05-12T09:20:20.415Z,27.00
2018-05-12T09:22:47.915Z,27.10
2018-05-12T09:25:15.414Z,26.90
2018-05-12T09:27:42.976Z,26.80
2018-05-12T09:30:10.467Z,26.70
2018-05-12T09:32:37.981Z,26.30
2018-05-12T09:35:05.522Z,26.40
2018-05-12T09:37:33.788Z,26.50
2018-05-12T09:40:01.300Z,26.40
2018-05-12T09:42:28.955Z,26.50
2018-05-12T09:44:57.157Z,26.70
2018-05-12T09:47:24.617Z,26.70
2018-05-12T09:49:52.163Z,26.30
2018-05-12T09:52:19.687Z,26.40
2018-05-12T09:54:47.666Z,26.30
2018-05-12T09:57:15.206Z,26.30
2018-05-12T09:59:42.719Z,26.30
2018-05-12T10:02:10.224Z,26.40
2018-05-12T10:04:37.772Z,26.60
2018-05-12T10:07:05.271Z,26.60
2018-05-12T10:09:33.600Z,26.60
2018-05-12T10:12:01.859Z,26.10
2018-05-12T10:14:30.119Z,25.40
2018-05-12T10:16:57.620Z,25.30
2018-05-12T10:19:25.216Z,24.90
2018-05-12T10:21:53.455Z,24.70
2018-05-12T10:24:21.736Z,24.70
2018-05-12T10:26:49.299Z,24.70
2018-05-12T10:29:16.805Z,24.90
2018-05-12T10:31:45.075Z,24.90
2018-05-12T10:34:12.615Z,24.90
2018-05-12T10:36:40.126Z,25.20
2018-05-12T10:39:08.402Z,25.20
2018-05-12T10:41:35.936Z,25.10
2018-05-12T10:44:03.440Z,25.00
2018-05-12T10:46:30.947Z,25.00
2018-05-12T10:48:58.494Z,24.90
2018-05-12T10:51:25.992Z,25.00
2018-05-12T10:53:53.547Z,25.10
2018-05-12T10:56:21.051Z,25.20
2018-05-12T10:58:49.336Z,25.40
2018-05-12T11:01:16.840Z,25.30
2018-05-12T11:03:44.397Z,25.30
2018-05-12T11:06:11.903Z,25.30
2018-05-12T11:08:39.408Z,25.40
2018-05-12T11:11:06.956Z,25.40
2018-05-12T11:13:34.460Z,25.30
2018-05-12T11:16:02.030Z,25.40
2018-05-12T11:18:29.523Z,25.40
2018-05-12T11:20:57.783Z,24.90
2018-05-12T11:23:25.335Z,24.90
2018-05-12T11:25:53.603Z,25.00
2018-05-12T11:28:21.104Z,25.00
2018-05-12T11:30:48.661Z,24.90
2018-05-12T11:33:16.932Z,24.80
2018-05-12T11:35:44.436Z,24.70
2018-05-12T11:38:11.974Z,24.70
2018-05-12T11:40:39.476Z,24.70
2018-05-12T11:43:07.025Z,24.70
2018-05-12T11:45:35.306Z,24.80
2018-05-12T11:48:02.804Z,24.70
2018-05-12T11:50:30.331Z,24.80
2018-05-12T11:52:57.835Z,24.80
2018-05-12T11:55:26.096Z,24.50
2018-05-12T11:57:53.637Z,24.50
2018-05-12T12:00:21.143Z,24.60
2018-05-12T12:02:48.655Z,24.60
2018-05-12T12:05:16.225Z,24.60
2018-05-12T12:07:43.745Z,24.60
2018-05-12T12:10:11.287Z,24.40
2018-05-12T12:12:38.795Z,24.40
2018-05-12T12:15:06.293Z,24.40
2018-05-12T12:17:34.600Z,24.50
2018-05-12T12:20:02.102Z,24.40
2018-05-12T12:22:29.603Z,24.50
2018-05-12T12:24:57.136Z,24.40
2018-05-12T12:27:24.681Z,24.40
2018-05-12T12:29:52.227Z,24.40
2018-05-12T12:32:20.496Z,24.30
2018-05-12T12:34:48.011Z,24.20
2018-05-12T12:37:15.544Z,24.40
2018-05-12T12:39:43.049Z,24.40
2018-05-12T12:42:10.548Z,24.40
2018-05-12T12:44:38.079Z,24.40
2018-05-12T12:47:05.580Z,24.40
2018-05-12T12:49:33.134Z,24.40
2018-05-12T12:52:00.662Z,24.30
2018-05-12T12:54:28.238Z,24.30
2018-05-12T12:56:55.780Z,24.30
2018-05-12T12:59:23.319Z,24.30
2018-05-12T13:01:50.833Z,24.40
2018-05-12T13:04:18.345Z,24.40
2018-05-12T13:06:45.893Z,24.40
2018-05-12T13:09:13.409Z,24.40
2018-05-12T13:11:40.907Z,24.40
2018-05-12T13:14:08.443Z,24.30
2018-05-12T13:16:35.951Z,24.10
2018-05-12T13:19:03.458Z,24.10
2018-05-12T13:21:31.759Z,24.30
2018-05-12T13:23:59.264Z,24.20
2018-05-12T13:26:26.776Z,24.20
2018-05-12T13:28:54.953Z,24.30
2018-05-12T13:31:22.466Z,24.20
2018-05-12T13:33:49.961Z,24.30
2018-05-12T13:36:17.505Z,24.20
2018-05-12T13:38:44.996Z,24.30
2018-05-12T13:41:13.293Z,24.30
2018-05-12T13:43:40.816Z,24.30
2018-05-12T13:46:09.084Z,24.40
2018-05-12T13:48:36.616Z,24.30
2018-05-12T13:51:04.123Z,24.30
2018-05-12T13:53:31.626Z,24.40
2018-05-12T13:55:59.939Z,24.40
2018-05-12T13:58:27.439Z,24.30
2018-05-12T14:00:54.987Z,24.50
2018-05-12T14:03:22.481Z,24.50
2018-05-12T14:05:49.983Z,24.50
2018-05-12T14:08:18.292Z,24.50
2018-05-12T14:10:45.791Z,24.50
2018-05-12T14:13:13.320Z,24.50
2018-05-12T14:15:41.588Z,24.60
2018-05-12T14:18:09.081Z,24.50
2018-05-12T14:20:37.384Z,24.50
2018-05-12T14:23:04.886Z,24.50
2018-05-12T14:25:32.386Z,24.50
2018-05-12T14:27:59.921Z,24.50
2018-05-12T14:30:27.432Z,24.50
2018-05-12T14:32:54.969Z,24.50
2018-05-12T14:35:22.484Z,24.50
2018-05-12T14:37:50.756Z,24.50
2018-05-12T14:40:18.315Z,24.50
2018-05-12T14:42:45.874Z,24.60
2018-05-12T14:45:13.337Z,24.60
2018-05-12T14:47:40.914Z,24.60
2018-05-12T14:50:08.477Z,24.50
2018-05-12T14:52:35.939Z,24.50
2018-05-12T14:55:03.477Z,24.60
2018-05-12T14:57:31.747Z,24.60
2018-05-12T14:59:59.252Z,24.50
2018-05-12T15:02:26.798Z,24.50
2018-05-12T15:04:55.059Z,24.50
2018-05-12T15:07:22.581Z,24.50
2018-05-12T15:09:50.132Z,24.60
2018-05-12T15:12:17.649Z,24.70
2018-05-12T15:14:45.196Z,24.70
2018-05-12T15:17:12.728Z,24.60
2018-05-12T15:19:40.243Z,24.70
2018-05-12T15:22:07.756Z,24.70
2018-05-12T15:24:35.300Z,24.70
2018-05-12T15:27:02.799Z,24.70
2018-05-12T15:29:30.303Z,24.60
2018-05-12T15:31:58.605Z,24.70
2018-05-12T15:34:26.120Z,24.60
2018-05-12T15:36:53.631Z,24.60
2018-05-12T15:39:21.938Z,24.60
2018-05-12T15:41:49.448Z,24.50
2018-05-12T15:44:16.983Z,24.60
2018-05-12T15:46:44.559Z,24.70
2018-05-12T15:49:12.069Z,24.70
2018-05-12T15:51:39.573Z,24.70
2018-05-12T15:54:07.888Z,24.70
2018-05-12T15:56:35.396Z,24.70
2018-05-12T15:59:02.900Z,24.80
2018-05-12T16:01:31.215Z,24.80
2018-05-12T16:03:58.704Z,24.70
2018-05-12T16:06:26.212Z,24.80
2018-05-12T16:08:53.743Z,24.80
2018-05-12T16:11:21.236Z,24.70
2018-05-12T16:13:48.743Z,24.70
2018-05-12T16:16:17.068Z,24.80
2018-05-12T16:18:44.559Z,24.80
2018-05-12T16:21:12.768Z,24.80
2018-05-12T16:23:40.308Z,24.80
2018-05-12T16:26:07.801Z,24.80
2018-05-12T16:28:35.303Z,24.80
2018-05-12T16:31:03.680Z,24.80
2018-05-12T16:33:31.122Z,24.80
2018-05-12T16:35:58.615Z,24.80
2018-05-12T16:38:26.159Z,24.80
2018-05-12T16:40:53.661Z,24.80
2018-05-12T16:43:21.935Z,24.80
2018-05-12T16:45:49.469Z,24.70
2018-05-12T16:48:16.995Z,24.80
2018-05-12T16:50:45.886Z,24.80
2018-05-12T16:53:13.419Z,24.70
2018-05-12T16:55:41.691Z,24.70
2018-05-12T16:58:09.189Z,24.70
2018-05-12T17:00:36.732Z,24.70
2018-05-12T17:03:04.238Z,24.70
2018-05-12T17:05:31.740Z,24.70
2018-05-12T17:08:00.049Z,24.70
2018-05-12T17:10:27.556Z,24.60
2018-05-12T17:12:55.059Z,24.70
2018-05-12T17:15:22.621Z,24.70
2018-05-12T17:17:50.132Z,24.70
2018-05-12T17:20:17.692Z,24.60
2018-05-12T17:22:45.193Z,24.60
2018-05-12T17:25:12.707Z,24.60
2018-05-12T17:27:40.247Z,24.60
2018-05-12T17:30:07.756Z,24.60
2018-05-12T17:32:35.277Z,24.50
2018-05-12T17:35:02.803Z,24.50
2018-05-12T17:37:30.312Z,24.50
2018-05-12T17:39:57.820Z,24.50
2018-05-12T17:42:25.356Z,24.50
2018-05-12T17:44:52.871Z,24.50
2018-05-12T17:47:21.170Z,24.40
2018-05-12T17:49:48.705Z,24.40
2018-05-12T17:52:16.229Z,24.40
2018-05-12T17:54:43.744Z,24.40
2018-05-12T17:57:11.272Z,24.40
2018-05-12T17:59:38.774Z,24.30
2018-05-12T18:02:06.314Z,24.30
2018-05-12T18:04:33.818Z,24.30
2018-05-12T18:07:01.321Z,24.30
2018-05-12T18:09:28.867Z,24.30
2018-05-12T18:11:56.383Z,24.30
2018-05-12T18:14:23.892Z,24.30
2018-05-12T18:16:51.441Z,24.30
2018-05-12T18:19:19.015Z,24.30
2018-05-12T18:21:46.471Z,24.20
2018-05-12T18:24:14.778Z,24.20
2018-05-12T18:26:42.300Z,24.20
2018-05-12T18:29:09.802Z,24.20
2018-05-12T18:31:38.099Z,24.20
2018-05-12T18:34:06.377Z,24.10
2018-05-12T18:36:34.648Z,24.10
2018-05-12T18:39:02.184Z,24.00
2018-05-12T18:41:29.691Z,24.00
2018-05-12T18:43:57.191Z,24.00
2018-05-12T18:46:25.495Z,23.90
2018-05-12T18:48:52.995Z,23.90
2018-05-12T18:51:20.504Z,23.90
2018-05-12T18:53:48.827Z,23.80
2018-05-12T18:56:16.339Z,23.70
2018-05-12T18:58:43.843Z,23.70
2018-05-12T19:01:13.388Z,23.50
2018-05-12T19:03:40.896Z,23.50
2018-05-12T19:06:08.405Z,23.40
2018-05-12T19:08:36.713Z,23.20
2018-05-12T19:11:04.237Z,23.20
2018-05-12T19:13:31.793Z,23.20
2018-05-12T19:15:59.344Z,23.20
2018-05-12T19:18:26.840Z,23.10
2018-05-12T19:20:54.367Z,23.10
2018-05-12T19:23:21.919Z,23.00
2018-05-12T19:25:50.196Z,22.90
2018-05-12T19:28:18.463Z,22.90
2018-05-12T19:30:46.009Z,22.80
2018-05-12T19:33:13.512Z,22.70
2018-05-12T19:35:41.016Z,22.60
2018-05-12T19:38:08.560Z,22.40
2018-05-12T19:40:36.842Z,22.40
2018-05-12T19:43:04.383Z,22.40
2018-05-12T19:45:31.887Z,22.30
2018-05-12T19:48:00.179Z,22.30
2018-05-12T19:50:28.491Z,22.40
2018-05-12T19:52:56.019Z,22.30
2018-05-12T19:55:23.531Z,22.40
2018-05-12T19:57:51.839Z,22.30
2018-05-12T20:00:19.351Z,22.30
2018-05-12T20:02:46.855Z,22.30
2018-05-12T20:05:15.151Z,22.30
2018-05-12T20:07:42.653Z,22.20
2018-05-12T20:10:10.154Z,22.30
2018-05-12T20:12:37.691Z,22.30
2018-05-12T20:15:05.189Z,22.20
2018-05-12T20:17:32.688Z,22.10
2018-05-12T20:20:00.231Z,22.10
2018-05-12T20:22:27.731Z,22.10
2018-05-12T20:24:56.000Z,22.20
2018-05-12T20:27:23.560Z,22.10
2018-05-12T20:29:51.064Z,22.20
2018-05-12T20:32:19.348Z,22.10
2018-05-12T20:34:47.879Z,22.00
2018-05-12T20:37:15.445Z,22.00
2018-05-12T20:39:42.903Z,21.90
2018-05-12T20:42:10.446Z,21.80
2018-05-12T20:44:37.949Z,21.90
2018-05-12T20:47:05.463Z,21.80
2018-05-12T20:49:32.991Z,21.60
2018-05-12T20:52:00.500Z,21.60
2018-05-12T20:54:27.995Z,21.40
2018-05-12T20:56:55.532Z,21.40
2018-05-12T20:59:23.036Z,21.30
2018-05-12T21:01:50.557Z,21.20
2018-05-12T21:04:18.112Z,21.20
2018-05-12T21:06:45.612Z,21.20
2018-05-12T21:09:13.122Z,21.30
2018-05-12T21:11:40.660Z,21.30
2018-05-12T21:14:08.165Z,21.30
2018-05-12T21:16:35.668Z,21.40
2018-05-12T21:19:03.215Z,21.40
2018-05-12T21:21:31.480Z,21.40
2018-05-12T21:23:59.055Z,21.30
2018-05-12T21:26:27.304Z,21.40
2018-05-12T21:28:55.569Z,21.40
2018-05-12T21:31:23.060Z,21.40
2018-05-12T21:33:50.671Z,21.50
2018-05-12T21:36:18.176Z,21.50
2018-05-12T21:38:45.675Z,21.60
2018-05-12T21:41:13.318Z,21.60
2018-05-12T21:43:41.993Z,21.50
2018-05-12T21:46:09.519Z,21.40
2018-05-12T21:48:37.035Z,21.40
2018-05-12T21:51:04.532Z,21.40
2018-05-12T21:53:32.051Z,21.50
2018-05-12T21:55:59.544Z,21.40
2018-05-12T21:58:27.042Z,21.40
2018-05-12T22:00:54.569Z,21.40
2018-05-12T22:03:22.076Z,21.40
2018-05-12T22:05:50.353Z,21.40
2018-05-12T22:08:18.660Z,21.40
2018-05-12T22:10:46.164Z,21.30
2018-05-12T22:13:13.655Z,21.30
2018-05-12T22:15:41.179Z,21.30
2018-05-12T22:18:08.667Z,21.30
2018-05-12T22:20:36.192Z,21.30
2018-05-12T22:23:04.624Z,21.20
2018-05-12T22:25:32.131Z,21.20
2018-05-12T22:27:59.659Z,21.20
2018-05-12T22:30:27.302Z,21.20
2018-05-12T22:32:55.595Z,21.10
2018-05-12T22:35:23.864Z,21.10
2018-05-12T22:37:52.145Z,21.10
2018-05-12T22:40:19.677Z,21.00
2018-05-12T22:42:47.186Z,20.90
2018-05-12T22:45:14.687Z,20.80
2018-05-12T22:47:42.992Z,20.80
2018-05-12T22:50:10.496Z,20.70
2018-05-12T22:52:37.999Z,20.70
2018-05-12T22:55:06.306Z,20.70
2018-05-12T22:57:34.576Z,20.70
2018-05-12T23:00:02.081Z,20.60
2018-05-12T23:02:29.616Z,20.70
2018-05-12T23:04:57.123Z,20.70
2018-05-12T23:07:24.662Z,20.70
2018-05-12T23:09:52.919Z,20.60
2018-05-12T23:12:20.416Z,20.50
2018-05-12T23:14:47.954Z,20.60
2018-05-12T23:17:15.453Z,20.50
2018-05-12T23:19:42.948Z,20.40
2018-05-12T23:22:11.968Z,20.50
2018-05-12T23:24:39.474Z,20.50
2018-05-12T23:27:06.975Z,20.50
2018-05-12T23:29:35.280Z,20.30
2018-05-12T23:32:03.550Z,20.30
2018-05-12T23:34:31.828Z,20.20
2018-05-12T23:36:59.361Z,20.20
2018-05-12T23:39:26.854Z,20.10
2018-05-12T23:41:54.347Z,20.10
2018-05-12T23:44:21.888Z,19.90
2018-05-12T23:46:49.380Z,19.90
2018-05-12T23:49:17.661Z,19.80
2018-05-12T23:51:45.183Z,19.70
2018-05-12T23:54:12.680Z,19.90
2018-05-12T23:56:40.176Z,19.80
2018-05-12T23:59:07.706Z,19.80
